sensor_id;sensor_type;location;lat;lon;timestamp;temperature;humidity
3298;DHT22;1661;53.572;10.174;2024-01-16T00:00:36;1.70;84.50
3298;DHT22;1661;53.572;10.174;2024-01-16T00:03:05;1.70;84.30
3298;DHT22;1661;53.572;10.174;2024-01-16T00:05:31;1.80;84.00
3298;DHT22;1661;53.572;10.174;2024-01-16T00:07:58;1.70;83.80
3298;DHT22;1661;53.572;10.174;2024-01-16T00:10:25;1.60;83.80
3298;DHT22;1661;53.572;10.174;2024-01-16T00:12:52;1.60;84.20
3298;DHT22;1661;53.572;10.174;2024-01-16T00:15:19;1.60;84.40
3298;DHT22;1661;53.572;10.174;2024-01-16T00:17:47;1.60;84.10
3298;DHT22;1661;53.572;10.174;2024-01-16T00:20:18;1.50;83.80
3298;DHT22;1661;53.572;10.174;2024-01-16T00:22:45;1.40;84.20
3298;DHT22;1661;53.572;10.174;2024-01-16T00:25:12;1.50;84.60
3298;DHT22;1661;53.572;10.174;2024-01-16T00:27:41;1.50;84.70
3298;DHT22;1661;53.572;10.174;2024-01-16T00:30:09;1.50;84.90
3298;DHT22;1661;53.572;10.174;2024-01-16T00:32:35;1.50;84.50
3298;DHT22;1661;53.572;10.174;2024-01-16T00:35:03;1.40;84.60
3298;DHT22;1661;53.572;10.174;2024-01-16T00:37:35;1.40;84.90
3298;DHT22;1661;53.572;10.174;2024-01-16T00:40:05;1.40;84.60
3298;DHT22;1661;53.572;10.174;2024-01-16T00:42:34;1.20;84.40
3298;DHT22;1661;53.572;10.174;2024-01-16T00:45:01;1.20;84.70
3298;DHT22;1661;53.572;10.174;2024-01-16T00:47:28;1.20;85.00
3298;DHT22;1661;53.572;10.174;2024-01-16T00:49:54;1.20;85.30
3298;DHT22;1661;53.572;10.174;2024-01-16T00:52:21;1.30;85.40
3298;DHT22;1661;53.572;10.174;2024-01-16T00:54:49;1.40;85.40
3298;DHT22;1661;53.572;10.174;2024-01-16T00:57:16;1.50;85.50
3298;DHT22;1661;53.572;10.174;2024-01-16T00:59:45;1.50;84.90
3298;DHT22;1661;53.572;10.174;2024-01-16T01:02:11;1.50;84.50
3298;DHT22;1661;53.572;10.174;2024-01-16T01:04:38;1.40;84.20
3298;DHT22;1661;53.572;10.174;2024-01-16T01:07:06;1.30;84.30
3298;DHT22;1661;53.572;10.174;2024-01-16T01:09:34;1.30;84.50
3298;DHT22;1661;53.572;10.174;2024-01-16T01:12:02;1.40;84.80
3298;DHT22;1661;53.572;10.174;2024-01-16T01:14:29;1.30;84.30
3298;DHT22;1661;53.572;10.174;2024-01-16T01:16:56;1.20;84.10
3298;DHT22;1661;53.572;10.174;2024-01-16T01:19:26;1.30;84.70
3298;DHT22;1661;53.572;10.174;2024-01-16T01:21:57;1.30;85.00
3298;DHT22;1661;53.572;10.174;2024-01-16T01:24:24;1.30;84.60
3298;DHT22;1661;53.572;10.174;2024-01-16T01:26:53;1.30;84.30
3298;DHT22;1661;53.572;10.174;2024-01-16T01:29:21;1.30;84.30
3298;DHT22;1661;53.572;10.174;2024-01-16T01:31:48;1.30;84.20
3298;DHT22;1661;53.572;10.174;2024-01-16T01:34:15;1.40;84.10
3298;DHT22;1661;53.572;10.174;2024-01-16T01:36:42;1.20;83.40
3298;DHT22;1661;53.572;10.174;2024-01-16T01:39:09;1.20;83.70
3298;DHT22;1661;53.572;10.174;2024-01-16T01:41:37;1.30;84.10
3298;DHT22;1661;53.572;10.174;2024-01-16T01:44:05;1.40;83.80
3298;DHT22;1661;53.572;10.174;2024-01-16T01:46:42;1.40;83.30
3298;DHT22;1661;53.572;10.174;2024-01-16T01:49:12;1.30;83.00
3298;DHT22;1661;53.572;10.174;2024-01-16T01:51:39;1.40;83.20
3298;DHT22;1661;53.572;10.174;2024-01-16T01:54:06;1.50;83.20
3298;DHT22;1661;53.572;10.174;2024-01-16T01:56:34;1.40;82.90
3298;DHT22;1661;53.572;10.174;2024-01-16T01:59:01;1.40;82.40
3298;DHT22;1661;53.572;10.174;2024-01-16T02:01:29;1.40;81.80
3298;DHT22;1661;53.572;10.174;2024-01-16T02:03:59;1.30;82.00
3298;DHT22;1661;53.572;10.174;2024-01-16T02:06:26;1.30;82.40
3298;DHT22;1661;53.572;10.174;2024-01-16T02:08:53;1.30;82.90
3298;DHT22;1661;53.572;10.174;2024-01-16T02:11:24;1.40;83.30
3298;DHT22;1661;53.572;10.174;2024-01-16T02:13:51;1.40;83.40
3298;DHT22;1661;53.572;10.174;2024-01-16T02:16:18;1.50;83.20
3298;DHT22;1661;53.572;10.174;2024-01-16T02:18:45;1.40;82.40
3298;DHT22;1661;53.572;10.174;2024-01-16T02:21:17;1.30;82.60
3298;DHT22;1661;53.572;10.174;2024-01-16T02:23:45;1.30;82.60
3298;DHT22;1661;53.572;10.174;2024-01-16T02:26:13;1.40;82.90
3298;DHT22;1661;53.572;10.174;2024-01-16T02:28:40;1.40;83.10
3298;DHT22;1661;53.572;10.174;2024-01-16T02:31:07;1.40;83.10
3298;DHT22;1661;53.572;10.174;2024-01-16T02:33:33;1.50;83.20
3298;DHT22;1661;53.572;10.174;2024-01-16T02:36:00;1.50;83.20
3298;DHT22;1661;53.572;10.174;2024-01-16T02:38:27;1.50;82.70
3298;DHT22;1661;53.572;10.174;2024-01-16T02:40:57;1.50;82.70
3298;DHT22;1661;53.572;10.174;2024-01-16T02:43:24;1.50;83.00
3298;DHT22;1661;53.572;10.174;2024-01-16T02:45:54;1.50;82.70
3298;DHT22;1661;53.572;10.174;2024-01-16T02:48:21;1.50;82.90
3298;DHT22;1661;53.572;10.174;2024-01-16T02:50:48;1.50;82.90
3298;DHT22;1661;53.572;10.174;2024-01-16T02:53:15;1.50;82.90
3298;DHT22;1661;53.572;10.174;2024-01-16T02:55:42;1.40;83.00
3298;DHT22;1661;53.572;10.174;2024-01-16T02:58:10;1.40;83.20
3298;DHT22;1661;53.572;10.174;2024-01-16T03:00:37;1.40;83.40
3298;DHT22;1661;53.572;10.174;2024-01-16T03:03:04;1.50;83.40
3298;DHT22;1661;53.572;10.174;2024-01-16T03:05:34;1.50;83.40
3298;DHT22;1661;53.572;10.174;2024-01-16T03:08:03;1.50;83.60
3298;DHT22;1661;53.572;10.174;2024-01-16T03:10:33;1.50;83.60
3298;DHT22;1661;53.572;10.174;2024-01-16T03:13:00;1.40;83.20
3298;DHT22;1661;53.572;10.174;2024-01-16T03:15:31;1.40;83.40
3298;DHT22;1661;53.572;10.174;2024-01-16T03:17:57;1.30;83.60
3298;DHT22;1661;53.572;10.174;2024-01-16T03:20:24;1.30;83.60
3298;DHT22;1661;53.572;10.174;2024-01-16T03:22:51;1.30;83.50
3298;DHT22;1661;53.572;10.174;2024-01-16T03:25:18;1.30;83.70
3298;DHT22;1661;53.572;10.174;2024-01-16T03:27:45;1.20;83.70
3298;DHT22;1661;53.572;10.174;2024-01-16T03:30:12;1.20;83.80
3298;DHT22;1661;53.572;10.174;2024-01-16T03:32:40;1.10;84.00
3298;DHT22;1661;53.572;10.174;2024-01-16T03:35:07;1.00;84.40
3298;DHT22;1661;53.572;10.174;2024-01-16T03:37:34;1.00;84.70
3298;DHT22;1661;53.572;10.174;2024-01-16T03:40:01;0.90;85.10
3298;DHT22;1661;53.572;10.174;2024-01-16T03:42:31;0.90;85.40
3298;DHT22;1661;53.572;10.174;2024-01-16T03:45:00;0.90;85.60
3298;DHT22;1661;53.572;10.174;2024-01-16T03:47:29;0.80;85.50
3298;DHT22;1661;53.572;10.174;2024-01-16T03:50:02;0.80;85.90
3298;DHT22;1661;53.572;10.174;2024-01-16T03:52:30;0.80;85.90
3298;DHT22;1661;53.572;10.174;2024-01-16T03:54:56;0.90;85.90
3298;DHT22;1661;53.572;10.174;2024-01-16T03:57:23;0.90;85.70
3298;DHT22;1661;53.572;10.174;2024-01-16T03:59:50;0.90;85.80
3298;DHT22;1661;53.572;10.174;2024-01-16T04:02:17;0.90;85.80
3298;DHT22;1661;53.572;10.174;2024-01-16T04:04:44;0.90;85.80
3298;DHT22;1661;53.572;10.174;2024-01-16T04:07:12;1.00;85.90
3298;DHT22;1661;53.572;10.174;2024-01-16T04:09:42;1.00;85.90
3298;DHT22;1661;53.572;10.174;2024-01-16T04:12:09;0.90;86.00
3298;DHT22;1661;53.572;10.174;2024-01-16T04:14:36;1.00;86.20
3298;DHT22;1661;53.572;10.174;2024-01-16T04:17:03;1.00;86.10
3298;DHT22;1661;53.572;10.174;2024-01-16T04:19:30;1.00;85.90
3298;DHT22;1661;53.572;10.174;2024-01-16T04:21:59;1.00;85.80
3298;DHT22;1661;53.572;10.174;2024-01-16T04:24:30;1.00;85.70
3298;DHT22;1661;53.572;10.174;2024-01-16T04:26:57;1.00;85.50
3298;DHT22;1661;53.572;10.174;2024-01-16T04:29:24;0.90;85.60
3298;DHT22;1661;53.572;10.174;2024-01-16T04:31:50;1.00;85.70
3298;DHT22;1661;53.572;10.174;2024-01-16T04:34:20;1.00;85.60
3298;DHT22;1661;53.572;10.174;2024-01-16T04:36:48;1.00;85.60
3298;DHT22;1661;53.572;10.174;2024-01-16T04:39:14;1.00;85.60
3298;DHT22;1661;53.572;10.174;2024-01-16T04:41:42;1.00;85.50
3298;DHT22;1661;53.572;10.174;2024-01-16T04:44:09;1.00;85.60
3298;DHT22;1661;53.572;10.174;2024-01-16T04:46:36;1.10;85.70
3298;DHT22;1661;53.572;10.174;2024-01-16T04:49:06;1.10;85.60
3298;DHT22;1661;53.572;10.174;2024-01-16T04:51:33;1.10;85.60
3298;DHT22;1661;53.572;10.174;2024-01-16T04:54:00;1.10;85.50
3298;DHT22;1661;53.572;10.174;2024-01-16T04:56:27;1.10;85.50
3298;DHT22;1661;53.572;10.174;2024-01-16T04:58:55;1.10;85.50
3298;DHT22;1661;53.572;10.174;2024-01-16T05:01:22;1.10;85.50
3298;DHT22;1661;53.572;10.174;2024-01-16T05:03:48;1.10;85.70
3298;DHT22;1661;53.572;10.174;2024-01-16T05:06:15;1.10;85.90
3298;DHT22;1661;53.572;10.174;2024-01-16T05:08:42;1.10;86.00
3298;DHT22;1661;53.572;10.174;2024-01-16T05:11:11;1.10;86.00
3298;DHT22;1661;53.572;10.174;2024-01-16T05:13:38;1.10;85.90
3298;DHT22;1661;53.572;10.174;2024-01-16T05:16:07;1.10;85.80
3298;DHT22;1661;53.572;10.174;2024-01-16T05:18:33;1.10;85.80
3298;DHT22;1661;53.572;10.174;2024-01-16T05:21:00;1.10;85.80
3298;DHT22;1661;53.572;10.174;2024-01-16T05:23:30;1.10;85.80
3298;DHT22;1661;53.572;10.174;2024-01-16T05:25:56;1.20;85.80
3298;DHT22;1661;53.572;10.174;2024-01-16T05:28:23;1.20;85.70
3298;DHT22;1661;53.572;10.174;2024-01-16T05:30:50;1.20;85.60
3298;DHT22;1661;53.572;10.174;2024-01-16T05:33:18;1.20;85.60
3298;DHT22;1661;53.572;10.174;2024-01-16T05:35:45;1.20;85.60
3298;DHT22;1661;53.572;10.174;2024-01-16T05:38:11;1.10;85.80
3298;DHT22;1661;53.572;10.174;2024-01-16T05:40:38;1.10;86.00
3298;DHT22;1661;53.572;10.174;2024-01-16T05:43:05;1.00;86.40
3298;DHT22;1661;53.572;10.174;2024-01-16T05:45:32;1.00;86.70
3298;DHT22;1661;53.572;10.174;2024-01-16T05:47:59;1.00;86.90
3298;DHT22;1661;53.572;10.174;2024-01-16T05:50:27;1.00;87.40
3298;DHT22;1661;53.572;10.174;2024-01-16T05:52:54;1.00;87.60
3298;DHT22;1661;53.572;10.174;2024-01-16T05:55:20;1.00;87.60
3298;DHT22;1661;53.572;10.174;2024-01-16T05:57:51;1.00;87.70
3298;DHT22;1661;53.572;10.174;2024-01-16T06:00:18;1.00;88.10
3298;DHT22;1661;53.572;10.174;2024-01-16T06:02:51;1.00;88.30
3298;DHT22;1661;53.572;10.174;2024-01-16T06:05:17;0.90;88.50
3298;DHT22;1661;53.572;10.174;2024-01-16T06:07:45;1.00;88.70
3298;DHT22;1661;53.572;10.174;2024-01-16T06:10:12;0.90;88.90
3298;DHT22;1661;53.572;10.174;2024-01-16T06:12:40;0.90;89.10
3298;DHT22;1661;53.572;10.174;2024-01-16T06:15:13;1.00;89.20
3298;DHT22;1661;53.572;10.174;2024-01-16T06:17:40;1.00;89.20
3298;DHT22;1661;53.572;10.174;2024-01-16T06:20:07;1.10;88.90
3298;DHT22;1661;53.572;10.174;2024-01-16T06:22:34;1.10;88.90
3298;DHT22;1661;53.572;10.174;2024-01-16T06:25:03;1.10;88.80
3298;DHT22;1661;53.572;10.174;2024-01-16T06:27:29;1.10;88.60
3298;DHT22;1661;53.572;10.174;2024-01-16T06:29:56;1.20;88.80
3298;DHT22;1661;53.572;10.174;2024-01-16T06:32:25;1.30;88.60
3298;DHT22;1661;53.572;10.174;2024-01-16T06:34:52;1.30;88.40
3298;DHT22;1661;53.572;10.174;2024-01-16T06:37:24;1.40;88.20
3298;DHT22;1661;53.572;10.174;2024-01-16T06:39:53;1.40;88.10
3298;DHT22;1661;53.572;10.174;2024-01-16T06:42:21;1.50;87.90
3298;DHT22;1661;53.572;10.174;2024-01-16T06:44:48;1.50;87.60
3298;DHT22;1661;53.572;10.174;2024-01-16T06:47:15;1.50;87.40
3298;DHT22;1661;53.572;10.174;2024-01-16T06:49:42;1.50;87.60
3298;DHT22;1661;53.572;10.174;2024-01-16T06:52:09;1.50;87.60
3298;DHT22;1661;53.572;10.174;2024-01-16T06:54:35;1.60;87.60
3298;DHT22;1661;53.572;10.174;2024-01-16T06:57:02;1.60;87.50
3298;DHT22;1661;53.572;10.174;2024-01-16T06:59:30;1.50;87.50
3298;DHT22;1661;53.572;10.174;2024-01-16T07:01:57;1.50;87.60
3298;DHT22;1661;53.572;10.174;2024-01-16T07:04:24;1.40;87.80
3298;DHT22;1661;53.572;10.174;2024-01-16T07:06:51;1.50;88.10
3298;DHT22;1661;53.572;10.174;2024-01-16T07:09:21;1.40;88.10
3298;DHT22;1661;53.572;10.174;2024-01-16T07:11:50;1.50;88.20
3298;DHT22;1661;53.572;10.174;2024-01-16T07:14:17;1.50;88.20
3298;DHT22;1661;53.572;10.174;2024-01-16T07:16:46;1.40;88.40
3298;DHT22;1661;53.572;10.174;2024-01-16T07:19:13;1.50;88.60
3298;DHT22;1661;53.572;10.174;2024-01-16T07:21:40;1.40;88.70
3298;DHT22;1661;53.572;10.174;2024-01-16T07:24:10;1.40;88.90
3298;DHT22;1661;53.572;10.174;2024-01-16T07:26:37;1.40;89.10
3298;DHT22;1661;53.572;10.174;2024-01-16T07:29:04;1.50;89.20
3298;DHT22;1661;53.572;10.174;2024-01-16T07:31:31;1.50;89.10
3298;DHT22;1661;53.572;10.174;2024-01-16T07:33:59;1.50;89.20
3298;DHT22;1661;53.572;10.174;2024-01-16T07:36:31;1.50;89.20
3298;DHT22;1661;53.572;10.174;2024-01-16T07:39:01;1.50;89.30
3298;DHT22;1661;53.572;10.174;2024-01-16T07:41:31;1.50;89.20
3298;DHT22;1661;53.572;10.174;2024-01-16T07:44:00;1.50;89.30
3298;DHT22;1661;53.572;10.174;2024-01-16T07:46:26;1.50;89.40
3298;DHT22;1661;53.572;10.174;2024-01-16T07:48:53;1.50;89.40
3298;DHT22;1661;53.572;10.174;2024-01-16T07:51:22;1.50;89.40
3298;DHT22;1661;53.572;10.174;2024-01-16T07:54:05;1.50;89.60
3298;DHT22;1661;53.572;10.174;2024-01-16T07:56:32;1.50;89.80
3298;DHT22;1661;53.572;10.174;2024-01-16T07:58:58;1.30;89.90
3298;DHT22;1661;53.572;10.174;2024-01-16T08:01:25;1.30;90.20
3298;DHT22;1661;53.572;10.174;2024-01-16T08:03:52;1.30;90.60
3298;DHT22;1661;53.572;10.174;2024-01-16T08:06:19;1.30;90.70
3298;DHT22;1661;53.572;10.174;2024-01-16T08:08:47;1.20;90.80
3298;DHT22;1661;53.572;10.174;2024-01-16T08:11:14;1.30;91.20
3298;DHT22;1661;53.572;10.174;2024-01-16T08:13:41;1.40;91.10
3298;DHT22;1661;53.572;10.174;2024-01-16T08:16:08;1.30;90.70
3298;DHT22;1661;53.572;10.174;2024-01-16T08:18:35;1.30;90.90
3298;DHT22;1661;53.572;10.174;2024-01-16T08:21:02;1.20;90.90
3298;DHT22;1661;53.572;10.174;2024-01-16T08:23:28;1.20;91.00
3298;DHT22;1661;53.572;10.174;2024-01-16T08:25:56;1.20;91.30
3298;DHT22;1661;53.572;10.174;2024-01-16T08:28:23;1.20;91.30
3298;DHT22;1661;53.572;10.174;2024-01-16T08:30:51;1.30;91.40
3298;DHT22;1661;53.572;10.174;2024-01-16T08:33:18;1.40;91.10
3298;DHT22;1661;53.572;10.174;2024-01-16T08:35:45;1.40;90.90
3298;DHT22;1661;53.572;10.174;2024-01-16T08:38:12;1.40;90.80
3298;DHT22;1661;53.572;10.174;2024-01-16T08:40:38;1.40;90.40
3298;DHT22;1661;53.572;10.174;2024-01-16T08:43:06;1.40;90.30
3298;DHT22;1661;53.572;10.174;2024-01-16T08:45:35;1.40;90.40
3298;DHT22;1661;53.572;10.174;2024-01-16T08:48:03;1.50;90.50
3298;DHT22;1661;53.572;10.174;2024-01-16T08:50:33;1.50;90.20
3298;DHT22;1661;53.572;10.174;2024-01-16T08:52:59;1.40;90.30
3298;DHT22;1661;53.572;10.174;2024-01-16T08:55:26;1.30;90.50
3298;DHT22;1661;53.572;10.174;2024-01-16T08:57:53;1.40;90.70
3298;DHT22;1661;53.572;10.174;2024-01-16T09:00:21;1.40;90.70
3298;DHT22;1661;53.572;10.174;2024-01-16T09:02:48;1.40;90.80
3298;DHT22;1661;53.572;10.174;2024-01-16T09:05:15;1.40;90.60
3298;DHT22;1661;53.572;10.174;2024-01-16T09:07:42;1.50;90.90
3298;DHT22;1661;53.572;10.174;2024-01-16T09:10:09;1.50;90.80
3298;DHT22;1661;53.572;10.174;2024-01-16T09:12:36;1.40;90.90
3298;DHT22;1661;53.572;10.174;2024-01-16T09:15:03;1.50;91.10
3298;DHT22;1661;53.572;10.174;2024-01-16T09:17:31;1.50;90.90
3298;DHT22;1661;53.572;10.174;2024-01-16T09:20:00;1.50;91.10
3298;DHT22;1661;53.572;10.174;2024-01-16T09:22:27;1.60;91.00
3298;DHT22;1661;53.572;10.174;2024-01-16T09:24:54;1.70;90.80
3298;DHT22;1661;53.572;10.174;2024-01-16T09:27:21;1.60;90.20
3298;DHT22;1661;53.572;10.174;2024-01-16T09:29:48;1.50;90.30
3298;DHT22;1661;53.572;10.174;2024-01-16T09:32:14;1.60;90.20
3298;DHT22;1661;53.572;10.174;2024-01-16T09:34:43;1.50;90.10
3298;DHT22;1661;53.572;10.174;2024-01-16T09:37:09;1.50;90.20
3298;DHT22;1661;53.572;10.174;2024-01-16T09:39:40;1.60;90.20
3298;DHT22;1661;53.572;10.174;2024-01-16T09:42:06;1.60;90.00
3298;DHT22;1661;53.572;10.174;2024-01-16T09:44:36;1.50;89.70
3298;DHT22;1661;53.572;10.174;2024-01-16T09:47:03;1.50;89.90
3298;DHT22;1661;53.572;10.174;2024-01-16T09:49:31;1.40;90.00
3298;DHT22;1661;53.572;10.174;2024-01-16T09:51:59;1.50;90.10
3298;DHT22;1661;53.572;10.174;2024-01-16T09:54:27;1.50;90.10
3298;DHT22;1661;53.572;10.174;2024-01-16T09:56:54;1.60;89.90
3298;DHT22;1661;53.572;10.174;2024-01-16T09:59:24;1.70;89.90
3298;DHT22;1661;53.572;10.174;2024-01-16T10:01:54;1.70;89.40
3298;DHT22;1661;53.572;10.174;2024-01-16T10:04:25;1.70;89.20
3298;DHT22;1661;53.572;10.174;2024-01-16T10:06:54;1.80;89.40
3298;DHT22;1661;53.572;10.174;2024-01-16T10:09:24;1.80;89.20
3298;DHT22;1661;53.572;10.174;2024-01-16T10:11:51;1.80;89.20
3298;DHT22;1661;53.572;10.174;2024-01-16T10:14:18;1.80;89.20
3298;DHT22;1661;53.572;10.174;2024-01-16T10:16:58;1.90;89.30
3298;DHT22;1661;53.572;10.174;2024-01-16T10:19:29;2.00;89.00
3298;DHT22;1661;53.572;10.174;2024-01-16T10:22:04;1.90;88.50
3298;DHT22;1661;53.572;10.174;2024-01-16T10:24:33;2.00;88.70
3298;DHT22;1661;53.572;10.174;2024-01-16T10:27:01;2.00;88.60
3298;DHT22;1661;53.572;10.174;2024-01-16T10:29:29;1.90;88.60
3298;DHT22;1661;53.572;10.174;2024-01-16T10:31:56;1.90;88.70
3298;DHT22;1661;53.572;10.174;2024-01-16T10:34:23;2.00;88.90
3298;DHT22;1661;53.572;10.174;2024-01-16T10:36:59;2.10;88.40
3298;DHT22;1661;53.572;10.174;2024-01-16T10:39:29;2.00;88.30
3298;DHT22;1661;53.572;10.174;2024-01-16T10:41:57;2.00;88.40
3298;DHT22;1661;53.572;10.174;2024-01-16T10:44:24;2.20;88.40
3298;DHT22;1661;53.572;10.174;2024-01-16T10:46:56;2.20;88.30
3298;DHT22;1661;53.572;10.174;2024-01-16T10:49:35;2.20;88.00
3298;DHT22;1661;53.572;10.174;2024-01-16T10:52:03;2.20;88.10
3298;DHT22;1661;53.572;10.174;2024-01-16T10:54:32;2.20;88.20
3298;DHT22;1661;53.572;10.174;2024-01-16T10:57:07;2.20;88.00
3298;DHT22;1661;53.572;10.174;2024-01-16T10:59:42;2.20;87.90
3298;DHT22;1661;53.572;10.174;2024-01-16T11:02:13;2.20;87.90
3298;DHT22;1661;53.572;10.174;2024-01-16T11:04:44;2.20;88.00
3298;DHT22;1661;53.572;10.174;2024-01-16T11:07:13;2.20;88.10
3298;DHT22;1661;53.572;10.174;2024-01-16T11:09:41;2.20;88.20
3298;DHT22;1661;53.572;10.174;2024-01-16T11:12:10;2.20;88.20
3298;DHT22;1661;53.572;10.174;2024-01-16T11:14:43;2.30;88.20
3298;DHT22;1661;53.572;10.174;2024-01-16T11:17:11;2.30;88.20
3298;DHT22;1661;53.572;10.174;2024-01-16T11:19:44;2.40;88.30
3298;DHT22;1661;53.572;10.174;2024-01-16T11:22:11;2.50;88.00
3298;DHT22;1661;53.572;10.174;2024-01-16T11:24:38;2.50;87.70
3298;DHT22;1661;53.572;10.174;2024-01-16T11:27:05;2.50;87.40
3298;DHT22;1661;53.572;10.174;2024-01-16T11:29:38;2.50;87.50
3298;DHT22;1661;53.572;10.174;2024-01-16T11:32:04;2.50;87.60
3298;DHT22;1661;53.572;10.174;2024-01-16T11:34:53;2.50;87.40
3298;DHT22;1661;53.572;10.174;2024-01-16T11:37:30;2.50;87.60
3298;DHT22;1661;53.572;10.174;2024-01-16T11:40:20;2.40;87.60
3298;DHT22;1661;53.572;10.174;2024-01-16T11:42:47;2.50;87.90
3298;DHT22;1661;53.572;10.174;2024-01-16T11:48:25;2.60;87.50
3298;DHT22;1661;53.572;10.174;2024-01-16T11:50:53;2.60;87.40
3298;DHT22;1661;53.572;10.174;2024-01-16T11:53:36;2.60;87.30
3298;DHT22;1661;53.572;10.174;2024-01-16T11:59:26;2.70;87.00
3298;DHT22;1661;53.572;10.174;2024-01-16T12:02:00;2.80;86.90
3298;DHT22;1661;53.572;10.174;2024-01-16T12:04:29;2.80;86.50
3298;DHT22;1661;53.572;10.174;2024-01-16T12:07:00;2.80;86.40
3298;DHT22;1661;53.572;10.174;2024-01-16T12:09:27;2.70;86.70
3298;DHT22;1661;53.572;10.174;2024-01-16T12:12:01;2.70;86.90
3298;DHT22;1661;53.572;10.174;2024-01-16T12:14:31;2.70;87.10
3298;DHT22;1661;53.572;10.174;2024-01-16T12:17:08;2.70;87.00
3298;DHT22;1661;53.572;10.174;2024-01-16T12:19:37;2.80;86.90
3298;DHT22;1661;53.572;10.174;2024-01-16T12:22:08;2.80;86.70
3298;DHT22;1661;53.572;10.174;2024-01-16T12:24:36;2.80;86.90
3298;DHT22;1661;53.572;10.174;2024-01-16T12:27:03;2.90;86.90
3298;DHT22;1661;53.572;10.174;2024-01-16T12:29:31;3.00;86.80
3298;DHT22;1661;53.572;10.174;2024-01-16T12:32:05;3.00;86.30
3298;DHT22;1661;53.572;10.174;2024-01-16T12:34:33;3.00;86.10
3298;DHT22;1661;53.572;10.174;2024-01-16T12:37:06;3.00;86.20
3298;DHT22;1661;53.572;10.174;2024-01-16T12:39:33;3.00;86.00
3298;DHT22;1661;53.572;10.174;2024-01-16T12:42:01;3.00;86.00
3298;DHT22;1661;53.572;10.174;2024-01-16T12:44:28;3.00;86.10
3298;DHT22;1661;53.572;10.174;2024-01-16T12:46:55;2.90;86.10
3298;DHT22;1661;53.572;10.174;2024-01-16T12:49:27;2.90;86.30
3298;DHT22;1661;53.572;10.174;2024-01-16T12:52:17;2.90;86.00
3298;DHT22;1661;53.572;10.174;2024-01-16T12:54:47;2.90;86.30
3298;DHT22;1661;53.572;10.174;2024-01-16T12:57:17;3.00;86.10
3298;DHT22;1661;53.572;10.174;2024-01-16T12:59:46;3.00;85.90
3298;DHT22;1661;53.572;10.174;2024-01-16T13:02:25;2.90;85.80
3298;DHT22;1661;53.572;10.174;2024-01-16T13:04:58;2.70;86.30
3298;DHT22;1661;53.572;10.174;2024-01-16T13:07:29;2.70;86.60
3298;DHT22;1661;53.572;10.174;2024-01-16T13:10:07;2.70;86.70
3298;DHT22;1661;53.572;10.174;2024-01-16T13:12:34;2.70;86.70
3298;DHT22;1661;53.572;10.174;2024-01-16T13:15:02;2.70;86.60
3298;DHT22;1661;53.572;10.174;2024-01-16T13:17:31;2.70;86.80
3298;DHT22;1661;53.572;10.174;2024-01-16T13:19:58;2.70;86.90
3298;DHT22;1661;53.572;10.174;2024-01-16T13:22:24;2.70;86.90
3298;DHT22;1661;53.572;10.174;2024-01-16T13:24:53;2.70;86.90
3298;DHT22;1661;53.572;10.174;2024-01-16T13:27:19;2.80;86.90
3298;DHT22;1661;53.572;10.174;2024-01-16T13:29:46;2.80;86.80
3298;DHT22;1661;53.572;10.174;2024-01-16T13:32:13;2.90;86.50
3298;DHT22;1661;53.572;10.174;2024-01-16T13:34:40;2.80;86.40
3298;DHT22;1661;53.572;10.174;2024-01-16T13:37:19;2.70;86.40
3298;DHT22;1661;53.572;10.174;2024-01-16T13:39:46;2.80;86.50
3298;DHT22;1661;53.572;10.174;2024-01-16T13:42:14;2.80;86.40
3298;DHT22;1661;53.572;10.174;2024-01-16T13:44:45;2.80;86.40
3298;DHT22;1661;53.572;10.174;2024-01-16T13:47:13;2.70;86.50
3298;DHT22;1661;53.572;10.174;2024-01-16T13:49:43;2.80;86.70
3298;DHT22;1661;53.572;10.174;2024-01-16T13:52:10;2.80;86.80
3298;DHT22;1661;53.572;10.174;2024-01-16T13:54:40;2.90;86.70
3298;DHT22;1661;53.572;10.174;2024-01-16T13:57:07;2.90;86.50
3298;DHT22;1661;53.572;10.174;2024-01-16T13:59:37;2.80;86.50
3298;DHT22;1661;53.572;10.174;2024-01-16T14:02:04;2.90;86.40
3298;DHT22;1661;53.572;10.174;2024-01-16T14:04:33;2.90;86.40
3298;DHT22;1661;53.572;10.174;2024-01-16T14:07:00;2.80;86.40
3298;DHT22;1661;53.572;10.174;2024-01-16T14:09:35;2.70;86.70
3298;DHT22;1661;53.572;10.174;2024-01-16T14:12:02;2.70;86.80
3298;DHT22;1661;53.572;10.174;2024-01-16T14:14:29;2.70;86.80
3298;DHT22;1661;53.572;10.174;2024-01-16T14:16:58;2.70;86.80
3298;DHT22;1661;53.572;10.174;2024-01-16T14:19:25;2.70;86.80
3298;DHT22;1661;53.572;10.174;2024-01-16T14:21:56;2.70;87.00
3298;DHT22;1661;53.572;10.174;2024-01-16T14:24:22;2.50;87.30
3298;DHT22;1661;53.572;10.174;2024-01-16T14:26:49;2.50;87.60
3298;DHT22;1661;53.572;10.174;2024-01-16T14:29:16;2.60;87.50
3298;DHT22;1661;53.572;10.174;2024-01-16T14:31:44;2.60;87.30
3298;DHT22;1661;53.572;10.174;2024-01-16T14:34:15;2.60;87.20
3298;DHT22;1661;53.572;10.174;2024-01-16T14:36:43;2.60;87.10
3298;DHT22;1661;53.572;10.174;2024-01-16T14:39:10;2.60;87.00
3298;DHT22;1661;53.572;10.174;2024-01-16T14:41:38;2.60;87.30
3298;DHT22;1661;53.572;10.174;2024-01-16T14:44:08;2.60;87.30
3298;DHT22;1661;53.572;10.174;2024-01-16T14:46:35;2.60;87.40
3298;DHT22;1661;53.572;10.174;2024-01-16T14:49:02;2.60;87.20
3298;DHT22;1661;53.572;10.174;2024-01-16T14:51:30;2.60;86.70
3298;DHT22;1661;53.572;10.174;2024-01-16T14:53:57;2.60;86.80
3298;DHT22;1661;53.572;10.174;2024-01-16T14:56:26;2.50;86.40
3298;DHT22;1661;53.572;10.174;2024-01-16T14:58:53;2.50;86.80
3298;DHT22;1661;53.572;10.174;2024-01-16T15:01:20;2.40;86.80
3298;DHT22;1661;53.572;10.174;2024-01-16T15:03:47;2.50;86.70
3298;DHT22;1661;53.572;10.174;2024-01-16T15:06:14;2.50;86.80
3298;DHT22;1661;53.572;10.174;2024-01-16T15:08:43;2.60;86.60
3298;DHT22;1661;53.572;10.174;2024-01-16T15:11:10;2.50;86.40
3298;DHT22;1661;53.572;10.174;2024-01-16T15:13:37;2.60;86.40
3298;DHT22;1661;53.572;10.174;2024-01-16T15:16:04;2.50;86.30
3298;DHT22;1661;53.572;10.174;2024-01-16T15:18:31;2.50;86.30
3298;DHT22;1661;53.572;10.174;2024-01-16T15:20:58;2.50;86.40
3298;DHT22;1661;53.572;10.174;2024-01-16T15:23:25;2.50;86.10
3298;DHT22;1661;53.572;10.174;2024-01-16T15:25:54;2.50;86.20
3298;DHT22;1661;53.572;10.174;2024-01-16T15:28:32;2.50;86.10
3298;DHT22;1661;53.572;10.174;2024-01-16T15:30:58;2.50;85.90
3298;DHT22;1661;53.572;10.174;2024-01-16T15:33:31;2.40;86.10
3298;DHT22;1661;53.572;10.174;2024-01-16T15:35:59;2.40;86.30
3298;DHT22;1661;53.572;10.174;2024-01-16T15:38:26;2.40;86.30
3298;DHT22;1661;53.572;10.174;2024-01-16T15:40:55;2.30;86.50
3298;DHT22;1661;53.572;10.174;2024-01-16T15:43:21;2.40;86.50
3298;DHT22;1661;53.572;10.174;2024-01-16T15:45:50;2.50;86.50
3298;DHT22;1661;53.572;10.174;2024-01-16T15:48:17;2.60;86.10
3298;DHT22;1661;53.572;10.174;2024-01-16T15:50:44;2.60;86.00
3298;DHT22;1661;53.572;10.174;2024-01-16T15:53:11;2.60;85.90
3298;DHT22;1661;53.572;10.174;2024-01-16T15:55:40;2.70;85.60
3298;DHT22;1661;53.572;10.174;2024-01-16T15:58:09;2.70;85.40
3298;DHT22;1661;53.572;10.174;2024-01-16T16:00:35;2.70;85.40
3298;DHT22;1661;53.572;10.174;2024-01-16T16:03:03;2.70;85.40
3298;DHT22;1661;53.572;10.174;2024-01-16T16:05:30;2.70;85.30
3298;DHT22;1661;53.572;10.174;2024-01-16T16:07:57;2.80;85.10
3298;DHT22;1661;53.572;10.174;2024-01-16T16:10:24;2.80;85.10
3298;DHT22;1661;53.572;10.174;2024-01-16T16:12:52;2.80;85.10
3298;DHT22;1661;53.572;10.174;2024-01-16T16:15:20;2.80;85.30